Time;durP1;ratioP1;P1;durP2;ratioP2;P2;SDS_P1;SDS_P2;PMS_P1;PMS_P2;Temp;Humidity;BMP_temperature;BMP_pressure;BME280_temperature;BME280_humidity;BME280_pressure;Samples;Min_cycle;Max_cycle;Signal;HPM_P1;HPM_P2
2023/03/12 00:03:22;;;;;;;;;;;;;;;19.22;32.34;95192.28;10468507;28;2317;-57
2023/03/12 00:08:23;;;;;;;;;;;;;;;19.21;32.39;95190.72;10474250;28;2880;-57
2023/03/12 00:13:24;;;;;;;;;;;;;;;19.21;32.73;95182.03;10474296;28;2291;-57
2023/03/12 00:18:41;;;;;;;;;;;;;;;19.19;32.55;95190.22;10468721;28;2883;-61
2023/03/12 00:23:43;;;;;;;;;;;;;;;19.17;32.63;95188.91;10457869;28;2434;-57
2023/03/12 00:28:43;;;;;;;;;;;;;;;19.15;32.51;95181.31;10449384;28;2994;-58
2023/03/12 00:33:44;;;;;;;;;;;;;;;19.14;32.59;95182.41;10469721;28;2840;-58
2023/03/12 00:38:45;;;;;;;;;;;;;;;19.13;32.55;95186.06;10475179;28;2285;-58
2023/03/12 00:43:46;;;;;;;;;;;;;;;19.10;32.47;95188.47;10480025;28;2966;-57
2023/03/12 00:48:46;;;;;;;;;;;;;;;19.08;32.46;95183.47;10469293;28;2933;-58
2023/03/12 00:53:47;;;;;;;;;;;;;;;19.07;32.39;95189.00;10472165;28;2876;-58
2023/03/12 00:58:47;;;;;;;;;;;;;;;19.03;32.41;95188.78;10472359;28;2256;-57
2023/03/12 01:03:48;;;;;;;;;;;;;;;19.02;32.30;95186.44;10472516;28;2970;-59
2023/03/12 01:08:49;;;;;;;;;;;;;;;19.02;32.23;95191.69;10460378;28;3277;-57
2023/03/12 01:13:49;;;;;;;;;;;;;;;18.98;32.28;95201.97;10476083;28;2948;-60
2023/03/12 01:18:49;;;;;;;;;;;;;;;18.96;32.11;95188.31;10480286;28;2825;-56
2023/03/12 01:23:50;;;;;;;;;;;;;;;18.95;32.02;95201.72;10475874;28;2826;-57
2023/03/12 01:28:51;;;;;;;;;;;;;;;18.93;31.89;95198.59;10471231;28;3220;-58
2023/03/12 01:33:51;;;;;;;;;;;;;;;18.91;32.02;95206.75;10473825;28;2914;-58
2023/03/12 01:38:52;;;;;;;;;;;;;;;18.88;31.91;95202.06;10471834;28;2840;-58
2023/03/12 01:43:52;;;;;;;;;;;;;;;18.87;31.96;95200.50;10472844;28;2926;-58
2023/03/12 01:48:56;;;;;;;;;;;;;;;18.86;31.77;95198.91;10472425;28;2841;-58
2023/03/12 01:53:57;;;;;;;;;;;;;;;18.82;31.75;95187.41;10462121;28;2807;-57
2023/03/12 01:58:59;;;;;;;;;;;;;;;18.81;31.77;95183.22;10475993;28;2848;-57
2023/03/12 02:03:59;;;;;;;;;;;;;;;18.79;31.67;95181.91;10470543;28;2800;-58
2023/03/12 02:09:00;;;;;;;;;;;;;;;18.78;31.59;95186.38;10481286;28;2883;-58
2023/03/12 02:14:00;;;;;;;;;;;;;;;18.77;31.55;95200.59;10463427;28;2828;-58
2023/03/12 02:19:01;;;;;;;;;;;;;;;18.75;31.61;95210.56;10459861;28;2840;-58
2023/03/12 02:24:02;;;;;;;;;;;;;;;18.75;31.49;95218.44;10464662;28;2828;-58
2023/03/12 02:29:04;;;;;;;;;;;;;;;18.73;31.50;95220.56;10472395;28;2760;-58
2023/03/12 02:34:05;;;;;;;;;;;;;;;18.70;31.40;95221.09;10451618;28;2809;-58
2023/03/12 02:39:05;;;;;;;;;;;;;;;18.67;31.40;95221.63;10477520;28;2935;-58
2023/03/12 02:44:07;;;;;;;;;;;;;;;18.66;31.30;95223.50;10475481;28;2857;-57
2023/03/12 02:49:08;;;;;;;;;;;;;;;18.65;31.38;95216.66;10459645;28;2899;-58
2023/03/12 02:54:10;;;;;;;;;;;;;;;18.64;31.25;95216.94;10469390;28;2844;-57
2023/03/12 02:59:12;;;;;;;;;;;;;;;18.62;31.15;95224.31;10476261;28;2896;-58
2023/03/12 03:04:12;;;;;;;;;;;;;;;18.62;31.25;95226.94;10477487;28;2828;-58
2023/03/12 03:09:13;;;;;;;;;;;;;;;18.59;31.26;95238.75;10475775;28;2308;-58
2023/03/12 03:14:13;;;;;;;;;;;;;;;18.57;31.11;95235.63;10467360;28;2947;-58
2023/03/12 03:19:24;;;;;;;;;;;;;;;18.57;31.02;95229.59;10478877;28;2899;-58
2023/03/12 03:24:24;;;;;;;;;;;;;;;18.55;31.10;95234.31;10469715;28;2833;-58
2023/03/12 03:29:24;;;;;;;;;;;;;;;18.54;31.14;95241.44;10467737;28;2802;-58
2023/03/12 03:34:25;;;;;;;;;;;;;;;18.52;31.04;95237.50;10468109;28;3043;-58
2023/03/12 03:39:27;;;;;;;;;;;;;;;18.51;31.03;95238.56;10467975;28;2956;-58
2023/03/12 03:44:28;;;;;;;;;;;;;;;18.49;30.98;95235.41;10478612;28;2884;-57
2023/03/12 03:49:28;;;;;;;;;;;;;;;18.48;30.95;95234.66;10472662;28;2848;-57
2023/03/12 03:54:29;;;;;;;;;;;;;;;18.46;30.87;95252.50;10468967;28;2924;-58
2023/03/12 03:59:31;;;;;;;;;;;;;;;18.45;30.91;95256.19;10469080;28;2885;-57
2023/03/12 04:04:31;;;;;;;;;;;;;;;18.45;30.91;95258.00;10464691;28;3233;-58
2023/03/12 04:09:33;;;;;;;;;;;;;;;18.44;30.85;95261.72;10459766;28;2900;-58
2023/03/12 04:14:33;;;;;;;;;;;;;;;18.42;30.86;95263.78;10477469;28;2912;-57
2023/03/12 04:19:34;;;;;;;;;;;;;;;18.41;30.66;95270.06;10468949;28;2898;-58
2023/03/12 04:24:34;;;;;;;;;;;;;;;18.39;30.72;95267.72;10456046;28;2297;-58
2023/03/12 04:29:34;;;;;;;;;;;;;;;18.38;30.74;95273.25;10463899;28;2895;-57
2023/03/12 04:34:35;;;;;;;;;;;;;;;18.38;30.77;95270.63;10465312;28;2244;-57
2023/03/12 04:39:35;;;;;;;;;;;;;;;18.36;30.59;95267.50;10465333;28;2932;-58
2023/03/12 04:44:35;;;;;;;;;;;;;;;18.35;30.68;95271.16;10471437;28;2250;-58
2023/03/12 04:49:37;;;;;;;;;;;;;;;18.34;30.69;95274.84;10471586;28;2867;-57
2023/03/12 04:54:40;;;;;;;;;;;;;;;18.32;30.64;95261.97;10477007;28;3029;-58
2023/03/12 04:59:41;;;;;;;;;;;;;;;18.32;30.58;95248.09;10450836;28;2288;-58
2023/03/12 05:04:42;;;;;;;;;;;;;;;18.31;30.56;95254.38;10468986;28;2895;-56
2023/03/12 05:09:52;;;;;;;;;;;;;;;18.30;30.59;95252.84;10468988;28;2891;-57
2023/03/12 05:14:53;;;;;;;;;;;;;;;18.33;30.71;95244.41;10466450;28;2879;-56
2023/03/12 05:19:53;;;;;;;;;;;;;;;18.37;30.65;95243.59;10464063;28;2311;-58
2023/03/12 05:24:54;;;;;;;;;;;;;;;18.44;30.74;95235.47;10473017;28;2883;-58
2023/03/12 05:29:54;;;;;;;;;;;;;;;18.53;30.48;95237.22;10471802;28;2824;-58
2023/03/12 05:35:04;;;;;;;;;;;;;;;18.62;30.45;95237.44;10469088;28;2948;-58
2023/03/12 05:40:06;;;;;;;;;;;;;;;18.73;30.37;95246.03;10478819;28;2832;-58
2023/03/12 05:45:07;;;;;;;;;;;;;;;18.80;30.19;95247.28;10471456;28;2895;-57
2023/03/12 05:50:10;;;;;;;;;;;;;;;18.88;29.98;95254.56;10475553;28;2960;-58
2023/03/12 05:55:11;;;;;;;;;;;;;;;18.96;29.89;95267.13;10482282;28;2827;-57
2023/03/12 06:00:12;;;;;;;;;;;;;;;19.00;29.76;95264.75;10469901;28;2868;-58
2023/03/12 06:05:13;;;;;;;;;;;;;;;19.06;29.68;95264.41;10455381;28;2880;-58
2023/03/12 06:10:13;;;;;;;;;;;;;;;19.07;29.54;95252.06;10478180;28;2967;-57
2023/03/12 06:15:14;;;;;;;;;;;;;;;19.10;29.76;95252.28;10466846;28;2887;-57
2023/03/12 06:20:15;;;;;;;;;;;;;;;19.11;29.62;95250.44;10472175;28;2914;-58
2023/03/12 06:25:16;;;;;;;;;;;;;;;19.12;29.53;95237.06;10479905;28;2277;-57
2023/03/12 06:30:17;;;;;;;;;;;;;;;19.14;29.67;95234.94;10464850;28;2894;-57
2023/03/12 06:35:19;;;;;;;;;;;;;;;19.16;29.61;95243.31;10469774;28;2250;-57
2023/03/12 06:40:19;;;;;;;;;;;;;;;19.16;29.31;95251.22;10451145;28;2969;-58
2023/03/12 06:45:19;;;;;;;;;;;;;;;19.17;29.55;95247.50;10477090;28;3212;-58
2023/03/12 06:50:20;;;;;;;;;;;;;;;19.19;29.53;95255.91;10444438;28;2369;-58
2023/03/12 06:55:20;;;;;;;;;;;;;;;19.20;29.53;95265.34;10473802;28;2949;-57
2023/03/12 07:00:31;;;;;;;;;;;;;;;19.21;29.51;95282.69;10466816;28;2865;-57
2023/03/12 07:05:31;;;;;;;;;;;;;;;19.20;29.69;95286.38;10467916;28;2944;-58
2023/03/12 07:10:32;;;;;;;;;;;;;;;19.23;29.37;95280.56;10465846;28;2944;-57
2023/03/12 07:15:33;;;;;;;;;;;;;;;19.24;29.44;95283.97;10464920;28;2889;-58
2023/03/12 07:20:35;;;;;;;;;;;;;;;19.24;29.49;95287.41;10474456;28;2793;-58
2023/03/12 07:25:46;;;;;;;;;;;;;;;19.26;29.59;95284.47;10462596;28;2248;-58
2023/03/12 07:30:49;;;;;;;;;;;;;;;19.27;29.55;95284.19;10463895;28;2881;-58
2023/03/12 07:35:50;;;;;;;;;;;;;;;19.28;29.37;95275.28;10463109;28;3042;-58
2023/03/12 07:40:53;;;;;;;;;;;;;;;19.29;29.41;95268.94;10464109;28;3239;-58
2023/03/12 07:45:54;;;;;;;;;;;;;;;19.36;29.48;95273.91;10471159;28;2832;-58
2023/03/12 07:50:54;;;;;;;;;;;;;;;19.37;29.24;95276.25;10465700;28;2344;-57
2023/03/12 07:55:55;;;;;;;;;;;;;;;19.39;29.32;95279.38;10462370;28;2825;-58
2023/03/12 08:00:56;;;;;;;;;;;;;;;19.42;29.36;95289.38;10457882;28;3304;-58
2023/03/12 08:05:57;;;;;;;;;;;;;;;19.41;29.35;95290.41;10467762;28;3107;-57
2023/03/12 08:11:07;;;;;;;;;;;;;;;19.42;29.34;95286.72;10453334;28;3086;-57
2023/03/12 08:16:07;;;;;;;;;;;;;;;19.38;29.54;95293.59;10466729;28;3174;-57
2023/03/12 08:21:08;;;;;;;;;;;;;;;19.36;29.71;95298.34;10468906;28;2272;-59
2023/03/12 08:26:08;;;;;;;;;;;;;;;19.33;29.64;95293.63;10479449;28;3035;-59
2023/03/12 08:31:09;;;;;;;;;;;;;;;19.31;29.67;95293.09;10476772;28;3159;-59
2023/03/12 08:36:10;;;;;;;;;;;;;;;19.29;29.91;95297.84;10480494;28;2263;-58
2023/03/12 08:41:11;;;;;;;;;;;;;;;19.26;29.81;95308.13;10479603;28;3115;-59
2023/03/12 08:46:12;;;;;;;;;;;;;;;19.23;29.88;95298.94;10473592;28;3154;-59
2023/03/12 08:51:12;;;;;;;;;;;;;;;19.19;29.81;95300.56;10462559;28;2442;-57
2023/03/12 08:56:13;;;;;;;;;;;;;;;19.16;30.05;95311.63;10480151;28;3127;-58
2023/03/12 09:01:13;;;;;;;;;;;;;;;19.15;29.96;95328.44;10474709;28;3158;-59
2023/03/12 09:06:15;;;;;;;;;;;;;;;19.13;29.82;95320.06;10474454;28;3209;-59
2023/03/12 09:11:16;;;;;;;;;;;;;;;19.11;29.95;95327.44;10487354;28;2289;-59
2023/03/12 09:16:17;;;;;;;;;;;;;;;19.05;29.93;95320.63;10479865;28;3095;-58
2023/03/12 09:21:18;;;;;;;;;;;;;;;19.04;30.15;95316.44;10476987;28;3302;-59
2023/03/12 09:26:18;;;;;;;;;;;;;;;19.01;30.48;95316.19;10478143;28;3250;-54
2023/03/12 09:31:19;;;;;;;;;;;;;;;19.03;31.73;95322.75;10472035;28;3127;-58
2023/03/12 09:36:19;;;;;;;;;;;;;;;19.05;32.35;95328.53;10479443;28;3095;-57
2023/03/12 09:41:22;;;;;;;;;;;;;;;19.05;32.46;95328.53;10461385;28;3110;-58
2023/03/12 09:46:32;;;;;;;;;;;;;;;19.03;32.26;95330.63;10451867;28;3161;-58
2023/03/12 09:51:33;;;;;;;;;;;;;;;19.01;32.51;95345.09;10461148;28;2363;-58
2023/03/12 09:56:34;;;;;;;;;;;;;;;18.96;32.23;95343.28;10464389;28;3135;-58
2023/03/12 10:01:43;;;;;;;;;;;;;;;18.94;32.25;95337.50;10463334;28;3158;-59
2023/03/12 10:06:59;;;;;;;;;;;;;;;18.91;32.12;95334.66;10459499;28;3174;-60
2023/03/12 10:12:18;;;;;;;;;;;;;;;18.87;32.07;95337.06;10479206;28;3135;-58
2023/03/12 10:17:38;;;;;;;;;;;;;;;18.84;32.27;95339.41;10478283;28;3127;-59
2023/03/12 10:22:41;;;;;;;;;;;;;;;18.81;32.04;95339.97;10478855;28;3172;-59
2023/03/12 10:27:42;;;;;;;;;;;;;;;18.78;32.06;95336.03;10475378;28;2253;-60
2023/03/12 10:32:56;;;;;;;;;;;;;;;18.76;32.10;95335.53;10477064;28;3190;-59
2023/03/12 10:37:58;;;;;;;;;;;;;;;18.74;31.88;95340.28;10455300;28;3160;-59
2023/03/12 10:42:59;;;;;;;;;;;;;;;18.71;31.90;95338.19;10484294;28;3036;-58
2023/03/12 10:48:03;;;;;;;;;;;;;;;18.69;32.01;95340.31;10466294;28;3279;-58
2023/03/12 10:53:34;;;;;;;;;;;;;;;18.66;32.06;95343.47;10473121;28;2307;-57
2023/03/12 10:58:40;;;;;;;;;;;;;;;18.64;32.01;95345.56;10449675;28;2347;-58
2023/03/12 11:03:41;;;;;;;;;;;;;;;18.62;32.13;95331.94;10473756;28;3175;-56
2023/03/12 11:08:41;;;;;;;;;;;;;;;18.59;31.99;95327.22;10464219;28;3178;-57
2023/03/12 11:13:42;;;;;;;;;;;;;;;18.59;32.45;95335.88;10460657;28;3231;-56
2023/03/12 11:18:56;;;;;;;;;;;;;;;18.62;33.91;95335.34;10475865;28;3107;-57
2023/03/12 11:23:56;;;;;;;;;;;;;;;18.66;34.41;95330.34;10483313;28;3175;-53
2023/03/12 11:29:00;;;;;;;;;;;;;;;18.65;34.81;95334.81;10469624;28;3128;-55
2023/03/12 11:34:07;;;;;;;;;;;;;;;18.66;35.14;95331.13;10447834;28;3135;-56
2023/03/12 11:39:19;;;;;;;;;;;;;;;18.65;34.96;95326.91;10462647;28;2280;-57
2023/03/12 11:44:22;;;;;;;;;;;;;;;18.64;35.10;95320.13;10467317;28;2250;-59
2023/03/12 11:49:23;;;;;;;;;;;;;;;18.65;35.00;95326.13;10447117;28;3222;-54
2023/03/12 11:54:24;;;;;;;;;;;;;;;18.63;35.42;95315.91;10474072;28;3525;-59
2023/03/12 11:59:24;;;;;;;;;;;;;;;18.64;35.60;95316.69;10474392;28;3235;-60
2023/03/12 12:04:31;;;;;;;;;;;;;;;18.63;35.55;95309.88;10471362;28;3258;-59
2023/03/12 12:09:35;;;;;;;;;;;;;;;18.60;35.70;95308.59;10474099;28;3183;-59
2023/03/12 12:14:42;;;;;;;;;;;;;;;18.55;35.51;95303.34;10461175;28;2269;-59
2023/03/12 12:20:00;;;;;;;;;;;;;;;18.56;35.53;95306.78;10474786;28;2372;-58
2023/03/12 12:25:20;;;;;;;;;;;;;;;18.53;35.29;95309.94;10463468;28;2290;-59
2023/03/12 12:30:21;;;;;;;;;;;;;;;18.52;35.28;95303.13;10474536;28;3072;-57
2023/03/12 12:35:29;;;;;;;;;;;;;;;18.48;35.21;95297.63;10478855;28;3198;-58
2023/03/12 12:40:36;;;;;;;;;;;;;;;18.48;35.37;95296.84;10459666;28;3115;-59
2023/03/12 12:45:38;;;;;;;;;;;;;;;18.47;35.54;95296.06;10468202;28;3144;-59
2023/03/12 12:50:38;;;;;;;;;;;;;;;18.45;35.50;95294.75;10458237;28;2306;-58
2023/03/12 12:55:39;;;;;;;;;;;;;;;18.45;35.66;95298.16;10466180;28;3142;-57
2023/03/12 13:00:44;;;;;;;;;;;;;;;18.45;35.88;95292.91;10471280;28;3143;-58
2023/03/12 13:05:45;;;;;;;;;;;;;;;18.44;35.80;95287.94;10456396;28;2262;-59
2023/03/12 13:10:47;;;;;;;;;;;;;;;18.44;35.57;95287.94;10474084;28;3476;-59
2023/03/12 13:16:16;;;;;;;;;;;;;;;18.42;35.64;95282.16;10481671;28;3147;-59
2023/03/12 13:21:33;;;;;;;;;;;;;;;18.45;35.93;95286.88;10472306;28;3211;-59
2023/03/12 13:26:38;;;;;;;;;;;;;;;18.43;35.60;95288.97;10458643;28;3141;-59
2023/03/12 13:31:39;;;;;;;;;;;;;;;18.40;35.43;95289.50;10479367;28;2342;-54
2023/03/12 13:36:42;;;;;;;;;;;;;;;18.38;35.42;95291.63;10452941;28;2312;-59
2023/03/12 13:41:48;;;;;;;;;;;;;;;18.38;35.31;95291.63;10476063;28;3200;-58
2023/03/12 13:46:56;;;;;;;;;;;;;;;18.35;35.25;95292.16;10480638;28;3147;-56
2023/03/12 13:52:00;;;;;;;;;;;;;;;18.34;35.26;95293.22;10480104;28;2287;-57
2023/03/12 13:57:08;;;;;;;;;;;;;;;18.32;35.31;95297.94;10483510;28;2413;-56
2023/03/12 14:02:14;;;;;;;;;;;;;;;18.31;35.28;95301.63;10482292;28;2376;-59
2023/03/12 14:07:18;;;;;;;;;;;;;;;18.30;35.17;95292.19;10452521;28;3148;-58
2023/03/12 14:12:23;;;;;;;;;;;;;;;18.27;35.23;95290.09;10476201;28;2317;-57
2023/03/12 14:17:24;;;;;;;;;;;;;;;18.26;35.90;95294.53;10477420;28;3067;-58
2023/03/12 14:22:24;;;;;;;;;;;;;;;18.29;35.73;95293.22;10481422;28;3155;-59
2023/03/12 14:27:26;;;;;;;;;;;;;;;18.27;35.53;95290.09;10455907;28;2281;-59
2023/03/12 14:32:28;;;;;;;;;;;;;;;18.29;35.54;95282.72;10481740;28;2301;-58
2023/03/12 14:37:39;;;;;;;;;;;;;;;18.29;35.49;95278.28;10481631;28;3139;-58
2023/03/12 14:42:39;;;;;;;;;;;;;;;18.31;35.67;95283.25;10463738;28;3202;-57
2023/03/12 14:47:43;;;;;;;;;;;;;;;18.36;35.70;95280.63;10477959;28;2385;-57
2023/03/12 14:52:54;;;;;;;;;;;;;;;18.41;35.65;95278.75;10481123;28;3181;-58
2023/03/12 14:58:02;;;;;;;;;;;;;;;18.48;35.54;95270.59;10469841;28;2252;-58
2023/03/12 15:03:03;;;;;;;;;;;;;;;18.56;35.49;95280.53;10474546;28;2366;-58
2023/03/12 15:08:03;;;;;;;;;;;;;;;18.64;35.12;95269.44;10480720;28;3110;-58
2023/03/12 15:13:04;;;;;;;;;;;;;;;18.71;35.08;95274.41;10483880;28;3158;-59
2023/03/12 15:18:05;;;;;;;;;;;;;;;18.78;34.91;95280.13;10474940;28;2345;-56
2023/03/12 15:23:05;;;;;;;;;;;;;;;18.85;34.91;95285.84;10456916;28;3173;-58
2023/03/12 15:28:07;;;;;;;;;;;;;;;18.90;34.69;95288.47;10476435;28;2308;-57
2023/03/12 15:33:20;;;;;;;;;;;;;;;18.95;34.73;95296.28;10478089;28;3150;-58
2023/03/12 15:38:22;;;;;;;;;;;;;;;18.99;34.70;95295.47;10459284;28;3289;-57
2023/03/12 15:43:22;;;;;;;;;;;;;;;18.99;34.78;95277.09;10456040;28;3103;-57
2023/03/12 15:48:32;;;;;;;;;;;;;;;19.05;34.69;95285.69;10480876;28;2238;-57
2023/03/12 15:53:33;;;;;;;;;;;;;;;19.07;34.65;95278.31;10472387;28;2298;-58
2023/03/12 15:58:37;;;;;;;;;;;;;;;19.05;34.80;95272.56;10476527;28;3172;-58
2023/03/12 16:03:37;;;;;;;;;;;;;;;19.09;34.48;95274.38;10475566;28;2230;-58
2023/03/12 16:08:49;;;;;;;;;;;;;;;19.12;34.62;95276.47;10481643;28;2222;-58
2023/03/12 16:13:49;;;;;;;;;;;;;;;19.11;34.67;95290.66;10477834;28;3153;-58
2023/03/12 16:18:50;;;;;;;;;;;;;;;19.15;34.64;95291.66;10478321;28;2341;-57
2023/03/12 16:23:50;;;;;;;;;;;;;;;19.14;34.79;95290.09;10466164;28;3167;-58
2023/03/12 16:28:52;;;;;;;;;;;;;;;19.16;34.83;95293.25;10488002;28;3218;-58
2023/03/12 16:33:53;;;;;;;;;;;;;;;19.22;34.63;95305.28;10471615;28;3165;-57
2023/03/12 16:38:53;;;;;;;;;;;;;;;19.20;34.62;95302.16;10475549;28;3269;-58
2023/03/12 16:43:55;;;;;;;;;;;;;;;19.23;34.78;95292.91;10471265;28;3150;-58
2023/03/12 16:48:56;;;;;;;;;;;;;;;19.25;34.63;95294.19;10456999;28;2270;-58
2023/03/12 16:53:58;;;;;;;;;;;;;;;19.26;34.49;95295.78;10474861;28;3162;-57
2023/03/12 16:58:59;;;;;;;;;;;;;;;19.28;34.51;95298.91;10452530;28;2403;-57
2023/03/12 17:03:59;;;;;;;;;;;;;;;19.32;34.25;95310.44;10475514;28;3290;-57
2023/03/12 17:09:01;;;;;;;;;;;;;;;19.35;34.30;95309.91;10477932;28;3159;-57
2023/03/12 17:14:02;;;;;;;;;;;;;;;19.39;34.31;95320.69;10468009;28;3103;-57
2023/03/12 17:19:03;;;;;;;;;;;;;;;19.41;34.45;95323.81;10469930;28;3250;-58
2023/03/12 17:24:15;;;;;;;;;;;;;;;19.43;34.47;95326.94;10488008;28;3197;-58
2023/03/12 17:29:16;;;;;;;;;;;;;;;19.47;34.23;95322.72;10487933;28;3151;-58
2023/03/12 17:34:17;;;;;;;;;;;;;;;19.52;34.24;95321.84;10491893;28;2454;-58
2023/03/12 17:39:18;;;;;;;;;;;;;;;19.57;33.92;95338.38;10485290;28;3317;-59
2023/03/12 17:44:19;;;;;;;;;;;;;;;19.57;33.86;95335.75;10483947;28;3225;-59
2023/03/12 17:49:20;;;;;;;;;;;;;;;19.63;33.67;95336.50;10485867;28;2288;-59
2023/03/12 17:54:21;;;;;;;;;;;;;;;19.65;33.87;95331.75;10479475;28;3285;-59
2023/03/12 17:59:22;;;;;;;;;;;;;;;19.70;33.87;95329.84;10480750;28;3327;-59
2023/03/12 18:04:23;;;;;;;;;;;;;;;19.73;33.80;95339.03;10481652;28;3258;-59
2023/03/12 18:09:24;;;;;;;;;;;;;;;19.75;34.14;95342.16;10479713;28;3091;-59
2023/03/12 18:14:26;;;;;;;;;;;;;;;19.78;34.23;95347.66;10477914;28;3218;-59
2023/03/12 18:19:28;;;;;;;;;;;;;;;19.86;34.62;95351.53;10479361;28;2296;-53
2023/03/12 18:24:29;;;;;;;;;;;;;;;19.90;34.82;95349.91;10465124;28;3182;-58
2023/03/12 18:29:29;;;;;;;;;;;;;;;19.95;34.76;95352.47;10481195;28;3139;-59
2023/03/12 18:34:31;;;;;;;;;;;;;;;19.93;34.82;95344.88;10484177;28;3156;-58
2023/03/12 18:39:31;;;;;;;;;;;;;;;19.96;34.63;95333.00;10485335;28;3214;-59
2023/03/12 18:44:32;;;;;;;;;;;;;;;19.99;34.64;95335.09;10482807;28;3213;-59
2023/03/12 18:49:32;;;;;;;;;;;;;;;20.01;34.26;95346.13;10481404;28;3123;-59
2023/03/12 18:54:32;;;;;;;;;;;;;;;20.01;33.99;95338.22;10489635;28;3214;-58
2023/03/12 18:59:33;;;;;;;;;;;;;;;20.02;33.98;95353.72;10482608;28;2294;-58
2023/03/12 19:04:34;;;;;;;;;;;;;;;20.00;34.22;95363.75;10476028;28;3163;-58
2023/03/12 19:09:34;;;;;;;;;;;;;;;20.01;34.13;95372.44;10483546;28;3178;-57
2023/03/12 19:14:34;;;;;;;;;;;;;;;20.00;34.19;95369.00;10479917;28;3102;-58
2023/03/12 19:19:34;;;;;;;;;;;;;;;20.01;33.88;95375.06;10482219;28;3201;-59
2023/03/12 19:24:35;;;;;;;;;;;;;;;19.99;34.48;95385.09;10480774;28;3336;-57
2023/03/12 19:29:35;;;;;;;;;;;;;;;20.01;34.38;95393.47;10475041;28;3143;-57
2023/03/12 19:34:36;;;;;;;;;;;;;;;20.03;34.03;95391.34;10483845;28;2316;-56
2023/03/12 19:39:37;;;;;;;;;;;;;;;20.03;33.93;95394.00;10495761;28;3219;-58
2023/03/12 19:44:39;;;;;;;;;;;;;;;20.05;33.61;95397.13;10482699;28;3132;-57
2023/03/12 19:49:39;;;;;;;;;;;;;;;20.03;34.08;95397.38;10478559;28;3131;-56
2023/03/12 19:54:41;;;;;;;;;;;;;;;20.04;33.82;95393.69;10482414;28;3185;-57
2023/03/12 19:59:41;;;;;;;;;;;;;;;20.04;33.85;95392.91;10479601;28;3280;-57
2023/03/12 20:04:41;;;;;;;;;;;;;;;20.06;33.75;95401.31;10454937;28;3223;-58
2023/03/12 20:09:41;;;;;;;;;;;;;;;20.06;34.19;95409.19;10473859;28;3099;-58
2023/03/12 20:14:42;;;;;;;;;;;;;;;19.98;33.06;95420.34;10469045;28;3166;-55
2023/03/12 20:19:43;;;;;;;;;;;;;;;19.95;33.20;95420.88;10473238;28;2367;-54
2023/03/12 20:24:43;;;;;;;;;;;;;;;19.90;33.19;95421.72;10479110;28;3143;-57
2023/03/12 20:29:45;;;;;;;;;;;;;;;19.87;33.19;95424.09;10475140;28;2360;-58
2023/03/12 20:34:45;;;;;;;;;;;;;;;19.95;34.05;95429.56;10483437;28;3223;-56
2023/03/12 20:39:45;;;;;;;;;;;;;;;19.98;35.24;95426.38;10476359;28;3123;-55
2023/03/12 20:44:45;;;;;;;;;;;;;;;19.99;36.18;95416.66;10476236;28;3211;-56
2023/03/12 20:49:46;;;;;;;;;;;;;;;19.99;36.77;95419.28;10460959;28;3167;-56
2023/03/12 20:54:46;;;;;;;;;;;;;;;19.99;37.13;95419.28;10488355;28;3226;-57
2023/03/12 20:59:47;;;;;;;;;;;;;;;19.96;37.20;95422.44;10483619;28;3202;-58
2023/03/12 21:04:48;;;;;;;;;;;;;;;19.91;37.22;95415.38;10467937;28;2253;-57
2023/03/12 21:09:48;;;;;;;;;;;;;;;19.89;37.69;95427.25;10487976;28;2281;-56
2023/03/12 21:14:49;;;;;;;;;;;;;;;19.86;37.46;95427.81;10484854;28;2385;-57
2023/03/12 21:19:49;;;;;;;;;;;;;;;19.80;37.51;95432.34;10488949;28;3154;-57
2023/03/12 21:24:50;;;;;;;;;;;;;;;19.75;37.60;95437.63;10478314;28;3305;-56
2023/03/12 21:29:50;;;;;;;;;;;;;;;19.70;37.47;95439.53;10477726;28;3181;-56
2023/03/12 21:34:51;;;;;;;;;;;;;;;19.66;37.34;95451.66;10479626;28;3154;-57
2023/03/12 21:39:52;;;;;;;;;;;;;;;19.62;37.42;95454.03;10481289;28;3290;-55
2023/03/12 21:44:53;;;;;;;;;;;;;;;19.60;37.14;95458.00;10479323;28;3170;-57
2023/03/12 21:50:03;;;;;;;;;;;;;;;19.54;37.07;95453.84;10482039;28;3286;-57
2023/03/12 21:55:07;;;;;;;;;;;;;;;19.49;36.81;95454.66;10477303;28;2290;-57
2023/03/12 22:00:12;;;;;;;;;;;;;;;19.43;36.70;95445.22;10482170;28;2292;-57
2023/03/12 22:05:12;;;;;;;;;;;;;;;19.39;36.39;95450.22;10478099;28;2293;-58
2023/03/12 22:10:13;;;;;;;;;;;;;;;19.35;36.35;95440.56;10474477;28;3214;-57
2023/03/12 22:15:13;;;;;;;;;;;;;;;19.32;36.43;95433.97;10477087;28;3230;-56
2023/03/12 22:20:14;;;;;;;;;;;;;;;19.28;36.15;95440.81;10480876;28;2350;-57
2023/03/12 22:25:14;;;;;;;;;;;;;;;19.25;36.19;95436.09;10479302;28;3107;-58
2023/03/12 22:30:23;;;;;;;;;;;;;;;19.22;36.20;95441.13;10470012;28;3142;-58
2023/03/12 22:35:32;;;;;;;;;;;;;;;19.19;36.08;95428.53;10475141;28;3204;-57
2023/03/12 22:40:42;;;;;;;;;;;;;;;19.15;35.96;95423.03;10480662;28;3191;-57
2023/03/12 22:45:43;;;;;;;;;;;;;;;19.12;36.05;95404.41;10469849;28;3244;-57
2023/03/12 22:50:51;;;;;;;;;;;;;;;19.07;35.97;95402.59;10473140;28;3265;-56
2023/03/12 22:55:58;;;;;;;;;;;;;;;19.06;35.79;95408.88;10477926;28;3169;-57
2023/03/12 23:01:00;;;;;;;;;;;;;;;19.03;35.61;95404.19;10481033;28;3074;-57
2023/03/12 23:06:01;;;;;;;;;;;;;;;19.00;35.97;95399.47;10475748;28;3091;-57
2023/03/12 23:11:02;;;;;;;;;;;;;;;18.99;35.89;95392.66;10453556;28;3420;-56
2023/03/12 23:16:03;;;;;;;;;;;;;;;18.96;35.74;95376.66;10478771;28;3195;-57
2023/03/12 23:21:14;;;;;;;;;;;;;;;18.95;35.74;95370.63;10474019;28;3248;-58
2023/03/12 23:26:15;;;;;;;;;;;;;;;18.92;35.62;95365.13;10471780;28;2276;-57
2023/03/12 23:31:15;;;;;;;;;;;;;;;18.90;35.51;95364.63;10477760;28;3035;-57
2023/03/12 23:36:17;;;;;;;;;;;;;;;18.88;35.62;95366.69;10480911;28;3155;-57
2023/03/12 23:41:18;;;;;;;;;;;;;;;18.87;35.57;95359.91;10478153;28;3111;-57
2023/03/12 23:46:19;;;;;;;;;;;;;;;18.83;35.46;95349.16;10465933;28;3134;-57
2023/03/12 23:51:21;;;;;;;;;;;;;;;18.82;35.40;95352.03;10482946;28;3397;-57
2023/03/12 23:56:21;;;;;;;;;;;;;;;18.79;35.42;95344.72;10481895;28;3175;-57
